Time;durP1;ratioP1;P1;durP2;ratioP2;P2;SDS_P1;SDS_P2;PMS_P1;PMS_P2;Temp;Humidity;BMP_temperature;BMP_pressure;BME280_temperature;BME280_humidity;BME280_pressure;Samples;Min_cycle;Max_cycle;Signal;HPM_P1;HPM_P2
2021/09/01 00:00:15;;;;;;;9.00;7.20;;;;;;;15.05;73.29;100480.81;4848186;28;101436;-85
2021/09/01 00:02:41;;;;;;;10.20;7.03;;;;;;;14.94;73.37;100470.78;4865336;28;96693;-85
2021/09/01 00:05:08;;;;;;;8.30;7.20;;;;;;;15.05;73.52;100483.47;4883522;28;96788;-85
2021/09/01 00:07:34;;;;;;;9.10;7.13;;;;;;;14.96;73.60;100491.00;4867433;28;98125;-85
2021/09/01 00:09:59;;;;;;;8.70;7.53;;;;;;;14.96;73.50;100493.66;4851684;28;101636;-86
2021/09/01 00:12:25;;;;;;;10.23;7.57;;;;;;;14.88;73.50;100484.28;4867208;28;96657;-85
2021/09/01 00:14:50;;;;;;;8.02;6.57;;;;;;;15.01;73.39;100497.78;4867361;28;97100;-87
2021/09/01 00:17:16;;;;;;;11.50;7.05;;;;;;;14.90;73.49;100497.44;4866606;28;101452;-85
2021/09/01 00:19:41;;;;;;;14.80;7.40;;;;;;;14.91;73.74;100504.44;4851244;28;99886;-85
2021/09/01 00:22:07;;;;;;;10.85;6.63;;;;;;;14.86;73.86;100502.00;4883134;28;96586;-85
2021/09/01 00:24:32;;;;;;;10.07;7.10;;;;;;;14.85;73.95;100494.16;4866558;28;97027;-85
2021/09/01 00:26:58;;;;;;;11.05;6.93;;;;;;;14.88;73.58;100504.59;4882814;28;96677;-86
2021/09/01 00:29:23;;;;;;;7.22;6.53;;;;;;;14.76;73.77;100494.63;4866653;28;101857;-85
2021/09/01 00:31:49;;;;;;;13.80;6.63;;;;;;;14.82;73.80;100516.31;4866938;28;96483;-85
2021/09/01 00:34:15;;;;;;;10.40;6.80;;;;;;;14.79;73.77;100518.25;4883173;28;96916;-85
2021/09/01 00:36:41;;;;;;;8.27;6.45;;;;;;;14.77;73.83;100517.47;4867055;28;98435;-85
2021/09/01 00:39:06;;;;;;;11.35;6.68;;;;;;;14.76;73.56;100523.69;4882237;28;101815;-85
2021/09/01 00:41:32;;;;;;;16.15;6.95;;;;;;;14.74;73.66;100530.81;4866370;28;96657;-85
2021/09/01 00:44:16;;;;;;;9.25;7.15;;;;;;;14.69;73.94;100523.13;4866827;28;97016;-85
2021/09/01 00:46:43;;;;;;;11.43;6.90;;;;;;;14.69;73.55;100521.34;4882897;28;98222;-85
2021/09/01 00:49:10;;;;;;;8.65;6.65;;;;;;;14.76;73.81;100535.09;4866293;28;100041;-86
2021/09/01 00:51:35;;;;;;;10.32;6.95;;;;;;;14.71;73.59;100540.59;4882760;28;96656;-86
2021/09/01 00:54:01;;;;;;;10.23;6.60;;;;;;;14.73;73.85;100529.13;4866584;28;96954;-86
2021/09/01 00:56:26;;;;;;;10.18;7.03;;;;;;;14.70;73.94;100528.31;4850579;28;101904;-85
2021/09/01 00:58:52;;;;;;;9.85;7.93;;;;;;;14.71;73.47;100532.66;4866584;28;101398;-88
2021/09/01 01:01:22;;;;;;;9.63;6.72;;;;;;;14.71;73.91;100545.88;4866474;28;96597;-85
2021/09/01 01:03:52;;;;;;;9.15;6.47;;;;;;;14.69;73.60;100531.91;4850851;28;96937;-85
2021/09/01 01:06:22;;;;;;;13.32;6.70;;;;;;;14.75;73.74;100548.38;4866024;28;98640;-85
2021/09/01 01:08:49;;;;;;;11.90;7.70;;;;;;;14.75;73.69;100551.03;4882086;28;101288;-85
2021/09/01 01:11:14;;;;;;;11.32;6.57;;;;;;;14.75;74.00;100551.91;4850847;28;96608;-85
2021/09/01 01:13:46;;;;;;;8.95;6.70;;;;;;;14.80;73.69;100556.94;4866092;28;96625;-85
2021/09/01 01:16:22;;;;;;;9.48;6.72;;;;;;;14.73;73.53;100548.47;4850373;28;101573;-84
2021/09/01 01:18:52;;;;;;;13.90;7.53;;;;;;;14.80;73.73;100571.00;4866721;28;97983;-85
2021/09/01 01:21:38;;;;;;;8.85;7.15;;;;;;;14.75;73.98;100561.59;4866448;28;96815;-85
2021/09/01 01:24:03;;;;;;;11.65;6.93;;;;;;;14.75;74.03;100561.59;4881897;28;96935;-85
2021/09/01 01:26:30;;;;;;;9.82;7.15;;;;;;;14.74;73.74;100557.25;4865760;28;100308;-85
2021/09/01 01:28:59;;;;;;;11.90;6.75;;;;;;;14.74;74.29;100570.47;4881531;28;101401;-85
2021/09/01 01:31:24;;;;;;;9.82;6.40;;;;;;;14.66;73.99;100561.13;4865825;28;96626;-85
2021/09/01 01:33:50;;;;;;;9.00;6.75;;;;;;;14.67;74.13;100559.34;4865964;28;96911;-87
2021/09/01 01:36:16;;;;;;;12.00;6.45;;;;;;;14.66;73.89;100549.66;4881611;28;101232;-85
2021/09/01 01:38:42;;;;;;;9.68;7.18;;;;;;;14.75;73.93;100567.75;4865738;28;100931;-85
2021/09/01 01:41:08;;;;;;;8.80;7.35;;;;;;;14.61;73.65;100551.69;4850277;28;96728;-85
2021/09/01 01:43:37;;;;;;;8.77;6.18;;;;;;;14.76;73.97;100572.09;4866146;28;96883;-85
2021/09/01 01:46:06;;;;;;;8.43;6.88;;;;;;;14.68;73.73;100566.31;4881770;28;101945;-85
2021/09/01 01:48:33;;;;;;;8.60;6.72;;;;;;;14.70;73.79;100572.41;4865917;28;101530;-86
2021/09/01 01:50:59;;;;;;;15.13;6.70;;;;;;;14.64;74.14;100567.41;4866022;28;96647;-86
2021/09/01 01:53:25;;;;;;;7.70;6.28;;;;;;;14.68;74.05;100561.03;4881561;28;96884;-85
2021/09/01 01:55:50;;;;;;;8.88;6.28;;;;;;;14.69;74.11;100576.81;4865437;28;98296;-85
2021/09/01 01:58:16;;;;;;;10.07;6.75;;;;;;;14.70;73.48;100567.97;4849937;28;101152;-85
2021/09/01 02:00:41;;;;;;;10.95;6.93;;;;;;;14.60;73.53;100563.19;4881850;28;96612;-85
2021/09/01 02:03:07;;;;;;;11.95;6.65;;;;;;;14.67;73.72;100565.47;4865755;28;97089;-85
2021/09/01 02:05:33;;;;;;;8.57;7.05;;;;;;;14.64;73.90;100572.69;4865444;28;101527;-85
2021/09/01 02:07:58;;;;;;;12.18;7.05;;;;;;;14.49;74.04;100550.47;4881319;28;98442;-86
2021/09/01 02:10:24;;;;;;;8.95;6.78;;;;;;;14.54;73.75;100579.31;4865789;28;96557;-85
2021/09/01 02:12:49;;;;;;;10.85;6.30;;;;;;;14.44;73.75;100577.06;4866012;28;96888;-85
2021/09/01 02:15:15;;;;;;;7.57;5.88;;;;;;;14.35;73.72;100563.44;4865432;28;97573;-85
2021/09/01 02:17:41;;;;;;;7.07;6.07;;;;;;;14.41;73.30;100581.63;4865179;28;101464;-85
2021/09/01 02:20:08;;;;;;;9.25;6.57;;;;;;;14.32;73.65;100590.00;4849398;28;96654;-84
2021/09/01 02:22:34;;;;;;;8.07;6.22;;;;;;;14.26;74.19;100586.69;4881255;28;96903;-85
2021/09/01 02:24:59;;;;;;;7.10;6.38;;;;;;;14.25;73.73;100590.25;4863575;28;101894;-86
2021/09/01 02:27:25;;;;;;;8.82;6.90;;;;;;;14.20;73.92;100576.41;4881070;28;98436;-85
2021/09/01 02:29:51;;;;;;;8.38;6.53;;;;;;;14.14;73.90;100578.47;4865417;28;96785;-86
2021/09/01 02:32:17;;;;;;;11.93;7.25;;;;;;;14.16;74.30;100579.25;4881330;28;96831;-85
2021/09/01 02:34:42;;;;;;;11.18;7.03;;;;;;;14.08;74.40;100578.72;4849368;28;101918;-85
2021/09/01 02:37:08;;;;;;;7.90;6.57;;;;;;;14.09;74.36;100591.00;4865107;28;101174;-85
2021/09/01 02:39:34;;;;;;;12.70;7.72;;;;;;;14.03;74.83;100593.00;4865470;28;96653;-84
2021/09/01 02:42:00;;;;;;;9.30;6.47;;;;;;;14.00;74.89;100597.56;4865312;28;96912;-86
2021/09/01 02:44:25;;;;;;;8.73;6.50;;;;;;;13.97;75.05;100595.06;4880219;28;100225;-86
2021/09/01 02:46:51;;;;;;;10.35;5.80;;;;;;;13.94;75.07;100582.84;4864756;28;101495;-85
2021/09/01 02:49:16;;;;;;;10.00;6.93;;;;;;;13.92;74.99;100578.56;4881114;28;96653;-85
2021/09/01 02:51:42;;;;;;;11.85;6.35;;;;;;;13.91;74.85;100577.69;4881364;28;96582;-86
2021/09/01 02:54:07;;;;;;;10.10;6.05;;;;;;;13.92;75.12;100594.38;4864605;28;101628;-85
2021/09/01 02:56:33;;;;;;;10.65;6.30;;;;;;;13.96;75.18;100598.59;4880655;28;100392;-85
2021/09/01 02:58:58;;;;;;;8.95;6.57;;;;;;;13.89;75.49;100589.25;4880755;28;96568;-86
2021/09/01 03:01:24;;;;;;;9.60;6.82;;;;;;;13.87;75.09;100588.44;4865529;28;96613;-86
2021/09/01 03:03:49;;;;;;;8.30;6.47;;;;;;;13.92;75.30;100597.88;4865176;28;98278;-85
2021/09/01 03:06:15;;;;;;;8.10;6.20;;;;;;;13.89;75.63;100598.00;4864895;28;96653;-85
2021/09/01 03:08:41;;;;;;;11.85;6.85;;;;;;;13.84;75.27;100594.69;4880118;28;96601;-85
2021/09/01 03:11:07;;;;;;;9.70;6.82;;;;;;;13.80;75.66;100599.25;4864706;28;97106;-85
2021/09/01 03:13:33;;;;;;;9.15;6.82;;;;;;;13.79;75.85;100605.47;4880225;28;101907;-85
2021/09/01 03:15:58;;;;;;;13.25;6.95;;;;;;;13.79;75.77;100607.25;4880122;28;101485;-86
2021/09/01 03:18:24;;;;;;;15.18;7.50;;;;;;;13.78;75.63;100608.16;4864720;28;96617;-85
2021/09/01 03:20:49;;;;;;;11.23;7.18;;;;;;;13.81;76.04;100624.72;4880850;28;96680;-85
2021/09/01 03:23:15;;;;;;;12.75;7.30;;;;;;;13.83;75.69;100614.13;4880003;28;101659;-85
2021/09/01 03:25:40;;;;;;;8.05;6.78;;;;;;;13.84;75.71;100623.72;4864274;28;101562;-85
2021/09/01 03:28:06;;;;;;;10.07;8.27;;;;;;;13.85;76.02;100620.19;4864368;28;96759;-85
2021/09/01 03:30:31;;;;;;;9.07;7.40;;;;;;;13.89;75.88;100624.41;4880701;28;96935;-84
2021/09/01 03:32:57;;;;;;;11.45;7.28;;;;;;;13.87;76.31;100628.88;4895287;28;101331;-87
2021/09/01 03:35:23;;;;;;;13.27;7.65;;;;;;;13.89;76.28;100626.19;4864184;28;101189;-85
2021/09/01 03:37:48;;;;;;;11.38;7.65;;;;;;;13.92;76.53;100633.97;4864596;28;96623;-85
2021/09/01 03:40:14;;;;;;;10.52;8.05;;;;;;;13.91;76.19;100633.13;4864200;28;96952;-85
2021/09/01 03:42:40;;;;;;;9.82;7.47;;;;;;;13.93;76.02;100631.28;4863993;28;101892;-85
2021/09/01 03:45:07;;;;;;;8.70;7.10;;;;;;;13.90;76.14;100626.09;4863994;28;101394;-84
2021/09/01 03:47:32;;;;;;;10.93;7.45;;;;;;;13.93;76.18;100627.75;4864378;28;96597;-85
2021/09/01 03:49:59;;;;;;;8.75;6.97;;;;;;;13.92;76.48;100626.91;4864649;28;96882;-87
2021/09/01 03:52:24;;;;;;;10.88;7.03;;;;;;;13.94;76.33;100642.69;4864261;28;98212;-85
2021/09/01 03:54:50;;;;;;;11.27;7.38;;;;;;;13.91;76.11;100629.63;4864290;28;97948;-85
2021/09/01 03:57:15;;;;;;;9.88;7.22;;;;;;;13.96;76.40;100632.91;4879562;28;96605;-85
2021/09/01 03:59:41;;;;;;;9.38;7.47;;;;;;;13.84;76.64;100628.16;4864465;28;96825;-85
2021/09/01 04:02:07;;;;;;;11.02;7.22;;;;;;;13.90;76.24;100638.44;4879432;28;100569;-84
2021/09/01 04:04:34;;;;;;;10.10;7.72;;;;;;;13.89;76.36;100648.16;4863995;28;101081;-85
2021/09/01 04:07:00;;;;;;;10.60;7.00;;;;;;;13.84;76.35;100647.47;4880148;28;96597;-86
2021/09/01 04:09:26;;;;;;;9.88;6.88;;;;;;;13.74;76.46;100631.19;4864098;28;96885;-85
2021/09/01 04:11:51;;;;;;;9.70;7.55;;;;;;;13.86;76.58;100647.44;4863650;28;100870;-85
2021/09/01 04:14:16;;;;;;;13.45;7.50;;;;;;;13.87;76.65;100657.03;4848042;28;100409;-85
2021/09/01 04:16:42;;;;;;;8.98;7.03;;;;;;;13.87;76.42;100654.41;4880167;28;96659;-85
2021/09/01 04:19:08;;;;;;;9.35;6.68;;;;;;;13.92;76.19;100647.16;4848374;28;96938;-84
2021/09/01 04:21:33;;;;;;;9.15;7.57;;;;;;;13.89;76.22;100649.94;4863115;28;101012;-86
2021/09/01 04:23:59;;;;;;;9.60;7.40;;;;;;;13.89;76.08;100653.44;4879425;28;97954;-88
2021/09/01 04:26:24;;;;;;;13.38;7.45;;;;;;;13.90;75.99;100652.50;4879504;28;96961;-86
2021/09/01 04:28:50;;;;;;;15.57;8.00;;;;;;;13.88;76.68;100650.88;4863879;28;97075;-87
2021/09/01 04:31:15;;;;;;;12.02;7.97;;;;;;;13.87;76.13;100657.91;4863792;28;101578;-87
2021/09/01 04:33:41;;;;;;;12.50;8.27;;;;;;;13.89;76.42;100652.56;4879538;28;98042;-87
2021/09/01 04:36:06;;;;;;;9.23;8.20;;;;;;;13.93;76.19;100667.34;4864015;28;96548;-87
2021/09/01 04:38:32;;;;;;;12.25;8.90;;;;;;;13.98;76.21;100673.28;4848755;28;96937;-87
2021/09/01 04:40:57;;;;;;;15.80;9.20;;;;;;;13.92;75.69;100655.94;4863390;28;101338;-86
2021/09/01 04:43:23;;;;;;;10.15;7.97;;;;;;;13.99;75.82;100659.16;4863118;28;101263;-84
2021/09/01 04:45:48;;;;;;;11.48;7.78;;;;;;;14.21;75.40;100664.38;4862755;28;96559;-85
2021/09/01 04:48:14;;;;;;;13.73;9.00;;;;;;;14.31;75.43;100664.81;4879958;28;96963;-85
2021/09/01 04:50:39;;;;;;;12.90;8.63;;;;;;;14.46;75.06;100672.09;4850555;28;101902;-85
2021/09/01 04:53:05;;;;;;;10.35;8.00;;;;;;;14.69;74.46;100677.22;4882260;28;97450;-85
2021/09/01 04:55:31;;;;;;;11.13;7.63;;;;;;;14.88;73.78;100660.53;4865898;28;96730;-84
2021/09/01 04:57:56;;;;;;;11.73;7.68;;;;;;;15.12;73.28;100669.94;4865782;28;96629;-84
2021/09/01 05:00:22;;;;;;;10.60;8.15;;;;;;;15.25;72.34;100678.16;4865368;28;101946;-85
2021/09/01 05:02:47;;;;;;;10.90;7.72;;;;;;;15.36;72.06;100678.50;4866147;28;101118;-84
2021/09/01 05:05:13;;;;;;;9.52;8.15;;;;;;;15.73;71.12;100681.16;4866699;28;96822;-84
2021/09/01 05:07:38;;;;;;;13.98;8.15;;;;;;;15.83;70.36;100680.63;4881912;28;96869;-85
2021/09/01 05:10:04;;;;;;;12.68;8.40;;;;;;;15.88;70.15;100679.53;4880906;28;101658;-84
2021/09/01 05:12:30;;;;;;;11.90;8.02;;;;;;;15.95;70.05;100681.81;4881731;28;98489;-82
2021/09/01 05:14:56;;;;;;;14.48;8.20;;;;;;;16.06;69.78;100678.63;4881594;28;96743;-83
2021/09/01 05:17:22;;;;;;;13.57;8.02;;;;;;;15.92;69.43;100674.00;4882087;28;96867;-83
2021/09/01 05:19:48;;;;;;;11.07;8.25;;;;;;;16.16;69.22;100682.50;4881586;28;101117;-85
2021/09/01 05:22:19;;;;;;;9.60;8.02;;;;;;;16.24;69.23;100682.09;4865738;28;101046;-84
2021/09/01 05:25:04;;;;;;;14.23;8.63;;;;;;;16.22;68.92;100691.91;4865155;28;96981;-85
2021/09/01 05:27:32;;;;;;;17.75;8.38;;;;;;;16.41;68.41;100692.69;4866359;28;96873;-86
2021/09/01 05:29:58;;;;;;;12.60;7.93;;;;;;;16.58;67.88;100691.78;4866078;28;98043;-83
2021/09/01 05:32:26;;;;;;;10.65;7.18;;;;;;;16.74;67.50;100689.16;4866116;28;97786;-86
2021/09/01 05:34:59;;;;;;;8.10;7.25;;;;;;;16.82;67.04;100688.78;4865746;28;96647;-84
2021/09/01 05:37:26;;;;;;;12.40;7.45;;;;;;;16.81;66.71;100684.41;4866473;28;96727;-87
2021/09/01 05:39:54;;;;;;;11.82;7.97;;;;;;;16.92;66.46;100696.16;4850480;28;101966;-87
2021/09/01 05:42:22;;;;;;;8.98;7.05;;;;;;;16.90;65.79;100690.09;4850257;28;101540;-88
2021/09/01 05:44:48;;;;;;;9.35;7.38;;;;;;;17.07;65.69;100690.94;4882330;28;96705;-87
2021/09/01 05:47:15;;;;;;;13.23;7.72;;;;;;;17.23;65.79;100699.78;4882268;28;96888;-87
2021/09/01 05:49:42;;;;;;;9.05;7.40;;;;;;;17.38;65.47;100687.44;4866363;28;98516;-88
2021/09/01 05:52:08;;;;;;;10.93;7.40;;;;;;;17.52;64.92;100699.94;4882211;28;97893;-87
2021/09/01 05:54:34;;;;;;;13.07;7.60;;;;;;;17.56;64.67;100704.13;4850579;28;96699;-88
2021/09/01 05:57:09;;;;;;;13.90;8.02;;;;;;;18.07;63.41;100710.91;4866314;28;96915;-89
2021/09/01 06:00:02;;;;;;;11.25;6.85;;;;;;;18.32;62.20;100707.66;4864821;28;100378;-87
2021/09/01 06:02:38;;;;;;;;;;;;;;;18.50;61.77;100708.31;4896247;28;97977;-87
2021/09/01 06:05:06;;;;;;;14.70;7.75;;;;;;;18.88;60.87;100701.59;4865972;28;96603;-87
2021/09/01 06:07:32;;;;;;;11.27;6.95;;;;;;;19.03;60.23;100707.78;4850277;28;96901;-87
2021/09/01 06:10:02;;;;;;;12.55;7.03;;;;;;;19.88;58.51;100712.88;4866043;28;97559;-86
2021/09/01 06:12:29;;;;;;;11.77;6.78;;;;;;;20.32;57.57;100718.81;4865455;28;99694;-86
2021/09/01 06:14:55;;;;;;;12.00;7.78;;;;;;;20.64;56.12;100711.28;4881341;28;96592;-85
2021/09/01 06:17:21;;;;;;;10.70;6.47;;;;;;;21.51;54.63;100714.03;4881672;28;96862;-85
2021/09/01 06:19:47;;;;;;;13.05;7.40;;;;;;;22.63;50.75;100706.41;4864805;28;101622;-85
2021/09/01 06:22:14;;;;;;;10.60;7.30;;;;;;;23.31;48.61;100701.88;4865064;28;100551;-85
2021/09/01 06:24:40;;;;;;;10.00;6.03;;;;;;;25.18;45.92;100706.59;4880039;28;96828;-87
2021/09/01 06:27:05;;;;;;;9.82;6.75;;;;;;;25.65;43.82;100706.81;4865401;28;96796;-86
2021/09/01 06:29:31;;;;;;;8.30;6.88;;;;;;;26.50;42.16;100713.28;4865087;28;100084;-85
2021/09/01 06:31:57;;;;;;;7.90;6.15;;;;;;;27.60;40.97;100715.19;4864782;28;101212;-85
2021/09/01 06:34:22;;;;;;;12.25;7.28;;;;;;;28.05;39.88;100714.31;4898236;28;96605;-86
2021/09/01 06:36:48;;;;;;;13.18;6.82;;;;;;;28.63;38.97;100700.22;4865018;28;96982;-81
2021/09/01 06:39:14;;;;;;;7.88;6.30;;;;;;;28.32;38.78;100716.03;4880497;28;98148;-85
2021/09/01 06:41:40;;;;;;;8.90;5.80;;;;;;;28.94;38.80;100718.59;4865317;28;101295;-87
2021/09/01 06:44:05;;;;;;;10.43;5.57;;;;;;;30.56;36.76;100706.34;4865129;28;96627;-87
2021/09/01 06:46:31;;;;;;;9.55;6.22;;;;;;;31.16;34.79;100702.28;4865960;28;96874;-87
2021/09/01 06:48:56;;;;;;;10.65;5.78;;;;;;;30.69;35.26;100716.66;4864634;28;100576;-86
2021/09/01 06:51:22;;;;;;;8.10;6.25;;;;;;;30.92;35.20;100707.78;4881312;28;98359;-88
2021/09/01 06:53:47;;;;;;;8.25;6.60;;;;;;;31.47;33.76;100706.88;4865620;28;96648;-87
2021/09/01 06:56:13;;;;;;;8.98;5.57;;;;;;;31.08;35.26;100713.16;4865216;28;97000;-88
2021/09/01 06:58:39;;;;;;;9.35;6.50;;;;;;;31.69;33.61;100694.34;4880333;28;101306;-87
2021/09/01 07:01:04;;;;;;;8.57;6.13;;;;;;;30.35;35.57;100712.31;4864260;28;101849;-88
2021/09/01 07:03:30;;;;;;;5.97;5.35;;;;;;;32.61;32.90;100703.22;4865154;28;96587;-84
2021/09/01 07:05:55;;;;;;;8.35;4.97;;;;;;;31.72;32.90;100702.97;4865042;28;96923;-85
2021/09/01 07:08:23;;;;;;;8.38;5.30;;;;;;;29.21;37.43;100709.47;4864321;28;100985;-84
2021/09/01 07:10:49;;;;;;;12.05;4.82;;;;;;;28.25;39.15;100707.72;4848457;28;101304;-84
2021/09/01 07:13:14;;;;;;;7.30;5.35;;;;;;;31.82;34.07;100712.72;4864072;28;96628;-85
2021/09/01 07:15:41;;;;;;;10.05;5.40;;;;;;;31.86;33.21;100711.34;4897638;28;96814;-85
2021/09/01 07:18:06;;;;;;;6.30;5.32;;;;;;;31.16;34.09;100712.28;4848285;28;101387;-86
2021/09/01 07:20:32;;;;;;;16.55;6.55;;;;;;;28.98;37.05;100715.44;4864160;28;101110;-85
2021/09/01 07:22:57;;;;;;;6.10;4.93;;;;;;;31.00;34.61;100713.19;4864300;28;96685;-85
2021/09/01 07:25:23;;;;;;;8.10;5.18;;;;;;;31.90;32.60;100712.66;4879833;28;97033;-85
2021/09/01 07:27:49;;;;;;;11.45;4.88;;;;;;;33.78;30.66;100710.53;4880020;28;98160;-85
2021/09/01 07:30:14;;;;;;;8.88;4.55;;;;;;;35.20;28.37;100718.50;4848496;28;101417;-82
2021/09/01 07:32:40;;;;;;;7.15;4.70;;;;;;;33.57;30.61;100709.50;4864128;28;96622;-82
2021/09/01 07:35:06;;;;;;;9.98;5.55;;;;;;;31.44;33.80;100724.34;4848352;28;96897;-83
2021/09/01 07:37:31;;;;;;;7.22;4.97;;;;;;;28.78;37.31;100720.22;4879330;28;98117;-83
2021/09/01 07:39:57;;;;;;;8.13;5.63;;;;;;;26.94;40.42;100724.38;4848809;28;101353;-85
2021/09/01 07:42:23;;;;;;;14.88;6.50;;;;;;;25.65;43.04;100713.03;4864419;28;96619;-86
2021/09/01 07:44:48;;;;;;;11.20;6.75;;;;;;;30.20;35.97;100722.97;4848781;28;96972;-86
2021/09/01 07:47:14;;;;;;;10.98;6.10;;;;;;;29.86;36.26;100728.53;4864053;28;100089;-87
2021/09/01 07:49:41;;;;;;;7.35;6.13;;;;;;;27.89;39.52;100733.88;4863931;28;101116;-88
2021/09/01 07:52:07;;;;;;;6.97;5.45;;;;;;;30.86;35.23;100723.75;4864266;28;96585;-86
2021/09/01 07:54:34;;;;;;;5.60;5.10;;;;;;;33.33;31.31;100726.97;4864787;28;96540;-86
2021/09/01 07:56:59;;;;;;;8.32;5.07;;;;;;;30.64;35.05;100729.88;4879817;28;98627;-85
2021/09/01 07:59:25;;;;;;;7.97;5.57;;;;;;;29.39;37.08;100734.53;4863453;28;101033;-86
2021/09/01 08:01:50;;;;;;;5.97;5.28;;;;;;;28.66;37.87;100730.44;4863179;28;96626;-88
2021/09/01 08:04:16;;;;;;;9.68;4.75;;;;;;;28.69;37.62;100721.19;4848453;28;96970;-87
2021/09/01 08:06:41;;;;;;;9.43;5.15;;;;;;;27.86;39.29;100732.34;4864478;28;97592;-85
2021/09/01 08:09:07;;;;;;;6.70;4.90;;;;;;;28.32;38.79;100738.47;4847827;28;101499;-88
2021/09/01 08:11:32;;;;;;;6.32;5.05;;;;;;;29.44;36.42;100742.13;4848568;28;96711;-82
2021/09/01 08:13:58;;;;;;;6.53;5.40;;;;;;;30.34;35.40;100734.16;4863625;28;96963;-82
2021/09/01 08:16:23;;;;;;;8.25;5.22;;;;;;;31.32;33.79;100737.41;4896279;28;97683;-82
2021/09/01 08:18:49;;;;;;;9.82;4.43;;;;;;;28.79;37.64;100737.28;4879928;28;97494;-81
2021/09/01 08:21:14;;;;;;;6.82;4.70;;;;;;;26.90;40.06;100745.34;4847638;28;96768;-82
2021/09/01 08:23:40;;;;;;;5.85;4.72;;;;;;;25.60;42.19;100744.88;4864583;28;97034;-82
2021/09/01 08:26:06;;;;;;;6.25;4.85;;;;;;;26.49;41.04;100744.72;4865892;28;101287;-85
2021/09/01 08:28:32;;;;;;;9.35;4.70;;;;;;;25.17;43.25;100747.88;4865987;28;99201;-81
2021/09/01 08:30:57;;;;;;;10.90;5.13;;;;;;;27.73;38.97;100754.28;4867053;28;96652;-81
2021/09/01 08:33:23;;;;;;;4.85;4.45;;;;;;;28.87;38.66;100757.06;4866774;28;96523;-79
2021/09/01 08:35:48;;;;;;;5.47;4.72;;;;;;;29.59;36.99;100750.47;4866552;28;97540;-78
2021/09/01 08:38:14;;;;;;;7.10;4.25;;;;;;;27.85;38.98;100759.47;4882423;28;97387;-81
2021/09/01 08:40:39;;;;;;;6.50;4.18;;;;;;;29.50;36.40;100758.56;4866580;28;96593;-81
2021/09/01 08:43:07;;;;;;;5.88;4.53;;;;;;;28.61;36.95;100758.94;4882811;28;96857;-81
2021/09/01 08:45:32;;;;;;;4.60;4.07;;;;;;;27.96;37.90;100753.84;4881422;28;98269;-81
2021/09/01 08:47:58;;;;;;;7.05;4.20;;;;;;;26.77;39.86;100766.38;4882222;28;97472;-81
2021/09/01 08:50:27;;;;;;;6.05;4.78;;;;;;;26.04;41.23;100768.72;4881921;28;96634;-83
2021/09/01 08:52:52;;;;;;;6.07;4.57;;;;;;;25.60;42.33;100773.56;4850514;28;96990;-84
2021/09/01 08:55:19;;;;;;;6.70;5.00;;;;;;;27.90;38.93;100771.50;4865432;28;101603;-82
2021/09/01 08:57:45;;;;;;;9.07;4.72;;;;;;;27.86;39.06;100753.91;4865728;28;101637;-83
2021/09/01 09:00:11;;;;;;;6.72;4.60;;;;;;;26.23;40.60;100773.22;4882136;28;96617;-82
2021/09/01 09:02:37;;;;;;;5.88;4.35;;;;;;;28.70;36.47;100773.34;4866862;28;96897;-83
2021/09/01 09:05:05;;;;;;;11.48;4.68;;;;;;;28.61;36.40;100765.19;4851472;28;101139;-83
2021/09/01 09:07:42;;;;;;;5.70;4.78;;;;;;;28.71;36.22;100762.41;4851520;28;101002;-83
2021/09/01 09:10:29;;;;;;;6.20;4.60;;;;;;;29.41;35.50;100773.06;4851266;28;96555;-83
2021/09/01 09:12:56;;;;;;;7.20;4.43;;;;;;;29.89;34.75;100757.13;4866125;28;97033;-83
2021/09/01 09:15:21;;;;;;;10.32;4.70;;;;;;;31.03;33.49;100770.59;4849645;28;101280;-80
2021/09/01 09:17:47;;;;;;;5.10;4.55;;;;;;;31.37;32.48;100757.78;4865499;28;100822;-81
2021/09/01 09:20:12;;;;;;;4.43;4.03;;;;;;;32.83;30.82;100765.81;4866141;28;96614;-81
2021/09/01 09:22:40;;;;;;;6.03;4.28;;;;;;;33.68;29.01;100759.00;4865868;28;96943;-82
2021/09/01 09:25:18;;;;;;;4.75;3.50;;;;;;;31.21;31.91;100764.94;4865167;28;100278;-80
2021/09/01 09:27:48;;;;;;;7.07;5.07;;;;;;;30.18;33.89;100775.59;4850149;28;100986;-84
2021/09/01 09:30:20;;;;;;;6.25;4.50;;;;;;;30.71;32.80;100767.94;4865628;28;96643;-81
2021/09/01 09:33:03;;;;;;;4.45;4.05;;;;;;;31.05;31.33;100770.44;4865826;28;96943;-81
2021/09/01 09:35:47;;;;;;;4.78;4.38;;;;;;;31.01;31.62;100771.78;4898379;28;100099;-80
2021/09/01 09:38:15;;;;;;;5.70;4.40;;;;;;;32.98;30.23;100768.53;4881294;28;97926;-79
2021/09/01 09:40:40;;;;;;;8.07;4.18;;;;;;;30.15;33.00;100776.78;4881322;28;96672;-83
2021/09/01 09:43:17;;;;;;;9.10;5.25;;;;;;;30.95;32.48;100784.19;4865721;28;97042;-83
2021/09/01 09:45:44;;;;;;;6.95;4.50;;;;;;;31.53;31.19;100776.66;4865221;28;101694;-83
2021/09/01 09:48:10;;;;;;;5.63;3.70;;;;;;;31.77;30.67;100771.13;4865079;28;97977;-83
2021/09/01 09:50:36;;;;;;;4.57;4.10;;;;;;;30.06;32.87;100780.50;4881052;28;96712;-84
2021/09/01 09:53:01;;;;;;;6.25;4.50;;;;;;;30.80;32.10;100788.63;4865252;28;96885;-82
2021/09/01 09:55:27;;;;;;;6.15;4.20;;;;;;;29.43;33.99;100779.13;4881017;28;97678;-83
2021/09/01 09:57:54;;;;;;;5.28;4.22;;;;;;;30.97;31.88;100795.69;4865506;28;101442;-83
2021/09/01 10:00:21;;;;;;;6.00;4.35;;;;;;;30.84;32.19;100801.66;4849610;28;96546;-83
2021/09/01 10:02:47;;;;;;;9.93;4.35;;;;;;;29.42;33.86;100792.84;4896831;28;96863;-83
2021/09/01 10:05:17;;;;;;;4.90;4.32;;;;;;;28.01;35.66;100800.06;4880523;28;101221;-83
2021/09/01 10:07:44;;;;;;;4.88;4.25;;;;;;;27.46;36.76;100798.31;4865055;28;97650;-83
2021/09/01 10:10:11;;;;;;;4.38;3.97;;;;;;;26.97;37.64;100800.31;4849674;28;96678;-83
2021/09/01 10:12:39;;;;;;;5.97;4.35;;;;;;;26.61;38.26;100804.66;4865417;28;96745;-83
2021/09/01 10:15:07;;;;;;;6.43;4.50;;;;;;;26.89;37.78;100804.75;4880729;28;97458;-83
2021/09/01 10:17:38;;;;;;;4.45;3.92;;;;;;;27.79;36.57;100801.41;4864589;28;102758;-83
2021/09/01 10:20:05;;;;;;;6.30;4.80;;;;;;;27.87;36.51;100792.53;4850219;28;96668;-82
2021/09/01 10:22:31;;;;;;;5.38;4.10;;;;;;;27.84;35.55;100798.22;4880632;28;96835;-82
2021/09/01 10:24:56;;;;;;;5.30;4.80;;;;;;;26.67;37.30;100798.69;4880057;28;101764;-82
2021/09/01 10:27:24;;;;;;;6.70;4.22;;;;;;;27.34;37.17;100807.56;4864573;28;101792;-82
2021/09/01 10:29:55;;;;;;;5.45;4.18;;;;;;;27.24;37.20;100796.84;4864420;28;96545;-82
2021/09/01 10:32:29;;;;;;;5.97;4.57;;;;;;;26.73;38.48;100798.09;4849065;28;96812;-82
2021/09/01 10:35:16;;;;;;;5.45;4.22;;;;;;;26.73;38.40;100808.88;4848474;28;101793;-82
2021/09/01 10:37:46;;;;;;;5.25;4.53;;;;;;;26.29;38.18;100788.78;4880537;28;98051;-82
2021/09/01 10:40:31;;;;;;;4.82;4.20;;;;;;;26.13;38.97;100786.69;4880338;28;96990;-79
2021/09/01 10:42:58;;;;;;;8.50;4.60;;;;;;;26.51;39.64;100782.31;4866287;28;97004;-78
2021/09/01 10:45:29;;;;;;;6.47;4.13;;;;;;;26.58;39.81;100789.63;4863956;28;101359;-79
2021/09/01 10:47:58;;;;;;;4.38;3.97;;;;;;;26.60;39.54;100794.88;4879603;28;101427;-79
2021/09/01 10:50:23;;;;;;;6.13;4.20;;;;;;;26.38;39.85;100779.84;4864346;28;96708;-79
2021/09/01 10:52:59;;;;;;;5.57;4.13;;;;;;;26.31;40.01;100789.50;4879960;28;96897;-77
2021/09/01 10:55:26;;;;;;;7.75;4.75;;;;;;;26.04;41.07;100792.91;4863703;28;101903;-78
2021/09/01 10:58:14;;;;;;;8.82;4.95;;;;;;;25.85;39.82;100794.59;4897182;28;97604;-78
2021/09/01 11:00:39;;;;;;;4.60;4.15;;;;;;;25.61;40.36;100792.25;4880606;28;96571;-80
2021/09/01 11:03:05;;;;;;;8.30;4.50;;;;;;;25.37;40.56;100794.47;4880298;28;96666;-79
2021/09/01 11:05:31;;;;;;;7.88;4.70;;;;;;;25.17;41.12;100777.41;4864593;28;97419;-79
2021/09/01 11:07:56;;;;;;;5.28;4.20;;;;;;;25.23;41.27;100791.16;4863613;28;100725;-79
2021/09/01 11:10:22;;;;;;;7.65;4.13;;;;;;;25.26;41.01;100782.81;4863954;28;96708;-82
2021/09/01 11:12:57;;;;;;;7.38;4.22;;;;;;;25.09;40.78;100799.53;4864479;28;97019;-81
2021/09/01 11:15:23;;;;;;;9.25;5.22;;;;;;;25.11;41.20;100797.56;4848008;28;101108;-81
2021/09/01 11:17:48;;;;;;;6.15;4.07;;;;;;;24.79;41.37;100784.28;4879965;28;97610;-81